createdAt,value
2018-10-02T00:01:26.490Z,99410.62
2018-10-02T00:03:56.350Z,99360.12
2018-10-02T00:06:26.614Z,99415.31
2018-10-02T00:08:55.166Z,99411.73
2018-10-02T00:11:28.872Z,99409.48
2018-10-02T00:14:02.656Z,99397.30
2018-10-02T00:16:31.169Z,99420.34
2018-10-02T00:18:59.642Z,99423.70
2018-10-02T00:21:27.713Z,99422.66
2018-10-02T00:23:56.568Z,99419.59
2018-10-02T00:26:25.345Z,99408.16
2018-10-02T00:28:53.844Z,99418.98
2018-10-02T00:31:22.982Z,99410.47
2018-10-02T00:33:51.523Z,99413.17
2018-10-02T00:36:19.686Z,99411.31
2018-10-02T00:38:47.827Z,99416.20
2018-10-02T00:41:16.554Z,99408.63
2018-10-02T00:43:44.829Z,99376.72
2018-10-02T00:46:13.248Z,99414.30
2018-10-02T00:48:41.391Z,99408.04
2018-10-02T00:51:09.576Z,99411.31
2018-10-02T00:53:38.407Z,99414.64
2018-10-02T09:09:28.909Z,99340.60
2018-10-02T09:11:57.211Z,99382.58
2018-10-02T09:14:28.215Z,99380.48
2018-10-02T09:17:02.368Z,99377.78
2018-10-02T09:19:33.673Z,99369.81
2018-10-02T09:22:02.476Z,99380.31
2018-10-02T09:24:30.810Z,99384.48
2018-10-02T09:26:59.676Z,99317.91
2018-10-02T09:29:27.976Z,99353.40
2018-10-02T09:32:02.084Z,99324.93
2018-10-02T09:34:35.713Z,99341.97
2018-10-02T09:37:10.200Z,99352.55
2018-10-02T09:39:44.125Z,99360.56
2018-10-02T09:42:20.077Z,99288.17
2018-10-02T09:44:48.168Z,99328.27
2018-10-02T09:47:18.274Z,99291.80
2018-10-02T09:49:48.238Z,99270.27
2018-10-02T09:52:17.799Z,99331.88
2018-10-02T09:54:46.586Z,99338.14
2018-10-02T09:57:15.464Z,99328.25
2018-10-02T09:59:45.005Z,99312.37
2018-10-02T10:02:22.345Z,99307.60
2018-10-02T10:04:51.794Z,99320.92
2018-10-02T10:07:22.471Z,99323.93
2018-10-02T10:09:51.188Z,99324.17
2018-10-02T10:12:20.155Z,99284.32
2018-10-02T10:14:48.703Z,99314.06
2018-10-02T10:17:17.807Z,99315.45
2018-10-02T10:19:46.174Z,99308.44
2018-10-02T10:22:15.933Z,99262.48
2018-10-02T10:24:44.617Z,99220.64
2018-10-02T10:27:12.833Z,99297.51
2018-10-02T10:29:43.492Z,99223.02
2018-10-02T10:32:12.941Z,99291.49
2018-10-02T10:34:43.520Z,99286.08
2018-10-02T10:37:11.917Z,99287.25
2018-10-02T10:39:40.292Z,99253.01
2018-10-02T10:42:08.792Z,99288.02
2018-10-02T10:44:40.046Z,99304.73
2018-10-02T10:47:08.221Z,99259.63
2018-10-02T10:49:36.793Z,99259.02
2018-10-02T10:52:06.374Z,99274.74
2018-10-02T10:54:35.170Z,99285.22
2018-10-02T10:57:03.553Z,99264.98
2018-10-02T10:59:32.613Z,99253.31
2018-10-02T11:02:04.183Z,99259.53
2018-10-02T11:04:32.547Z,99243.34
2018-10-02T11:07:01.933Z,99244.02
2018-10-02T11:09:30.163Z,99246.66
2018-10-02T11:11:58.721Z,99243.49
2018-10-02T11:14:33.342Z,99250.67
2018-10-02T11:17:03.069Z,99252.51
2018-10-02T11:19:34.719Z,99230.33
2018-10-02T11:22:03.864Z,99206.17
2018-10-02T11:24:39.779Z,99179.70
2018-10-02T11:27:09.313Z,99196.62
2018-10-02T11:29:38.277Z,99202.55
2018-10-02T11:32:09.892Z,99205.17
2018-10-02T11:34:39.146Z,99224.95
2018-10-02T11:37:08.642Z,99190.70
2018-10-02T11:39:37.409Z,99191.10
2018-10-02T11:42:11.452Z,99170.81
2018-10-02T11:44:42.791Z,99122.01
2018-10-02T11:47:11.011Z,99198.06
2018-10-02T11:49:40.399Z,99150.98
2018-10-02T11:52:09.234Z,99177.81
2018-10-02T11:54:37.607Z,99152.75
2018-10-02T11:57:06.602Z,99163.59
2018-10-02T11:59:36.940Z,99149.26
2018-10-02T12:02:06.185Z,99144.76
2018-10-02T12:04:37.151Z,99131.43
2018-10-02T12:07:05.637Z,99156.09
2018-10-02T12:09:34.259Z,99155.53
2018-10-02T12:12:03.522Z,99154.72
2018-10-02T12:14:31.869Z,99144.38
2018-10-02T12:17:03.700Z,99144.08
2018-10-02T12:19:36.204Z,99113.41
2018-10-02T12:22:06.838Z,99081.80
2018-10-02T12:24:35.902Z,99089.97
2018-10-02T12:27:11.916Z,99062.94
2018-10-02T12:29:43.147Z,99032.11
2018-10-02T12:32:15.292Z,99114.88
2018-10-02T12:34:44.839Z,99119.07
2018-10-02T12:37:13.600Z,99069.19
2018-10-02T12:39:42.828Z,99113.97
2018-10-02T12:42:11.419Z,99121.73
2018-10-02T12:44:42.749Z,99110.98
2018-10-02T12:47:12.207Z,99072.45
2018-10-02T12:49:41.833Z,99088.72
2018-10-02T12:52:18.023Z,99051.62
2018-10-02T12:54:47.566Z,99100.63
2018-10-02T12:57:21.487Z,99111.73
2018-10-02T12:59:55.920Z,98940.09
2018-10-02T13:02:24.450Z,99089.87
2018-10-02T13:07:29.100Z,99081.76
2018-10-02T13:10:00.770Z,99010.30
2018-10-02T13:12:37.521Z,99007.19
2018-10-02T13:15:08.849Z,99048.02
2018-10-02T13:17:38.898Z,99023.38
2018-10-02T13:20:07.789Z,99043.78
2018-10-02T13:22:36.635Z,99071.18
2018-10-02T13:25:06.940Z,99014.34
2018-10-02T13:27:43.705Z,99033.89
2018-10-02T13:30:17.499Z,98935.72
2018-10-02T13:35:34.690Z,99012.22
2018-10-02T13:38:06.028Z,99024.11
2018-10-02T13:40:36.350Z,99016.68
2018-10-02T13:43:12.639Z,98819.95
2018-10-02T13:45:43.155Z,99015.03
2018-10-02T13:48:18.742Z,98998.06
2018-10-02T13:50:55.372Z,99009.16
2018-10-02T13:53:29.774Z,98962.08
2018-10-02T13:55:58.720Z,98999.44
2018-10-02T13:58:28.345Z,98999.89
2018-10-02T14:00:57.820Z,98963.63
2018-10-02T14:03:33.343Z,98975.95
2018-10-02T14:06:10.369Z,98995.99
2018-10-02T14:08:42.062Z,98986.50
2018-10-02T14:11:16.460Z,98987.27
2018-10-02T14:13:49.361Z,98986.31
2018-10-02T14:16:17.712Z,98986.20
2018-10-02T14:18:47.302Z,99005.36
2018-10-02T14:21:16.968Z,98960.38
2018-10-02T14:23:45.357Z,99006.98
2018-10-02T14:26:14.281Z,98947.02
2018-10-02T14:28:44.107Z,98989.91
2018-10-02T14:31:12.492Z,98986.91
2018-10-02T14:33:43.721Z,98990.13
2018-10-02T14:36:16.431Z,98983.95
2018-10-02T14:38:44.757Z,98978.69
2018-10-02T14:41:14.846Z,98941.78
2018-10-02T14:43:48.489Z,98820.48
2018-10-02T14:46:17.485Z,98915.82
2018-10-02T14:48:49.152Z,98952.33
2018-10-02T14:51:30.295Z,98937.14
2018-10-02T14:54:04.839Z,98941.94
2018-10-02T14:56:46.662Z,98937.32
2018-10-02T14:59:15.229Z,98941.41
2018-10-02T15:01:44.245Z,98946.48
2018-10-02T15:04:14.573Z,98945.72
2018-10-02T15:06:43.787Z,98969.56
2018-10-02T15:09:20.433Z,98944.07
2018-10-02T15:11:54.923Z,98925.66
2018-10-02T15:14:23.577Z,98940.90
2018-10-02T15:17:06.857Z,98928.22
2018-10-02T15:19:43.975Z,98917.28
2018-10-02T15:22:20.310Z,98920.78
2018-10-02T15:24:54.700Z,98910.67
2018-10-02T15:27:23.911Z,98935.06
2018-10-02T15:29:52.336Z,98935.33
2018-10-02T15:32:26.075Z,98931.54
2018-10-02T15:34:58.226Z,98911.87
2018-10-02T15:37:29.148Z,98922.91
2018-10-02T15:40:01.748Z,98907.57
2018-10-02T15:42:33.593Z,98920.13
2018-10-02T15:45:02.390Z,98913.61
2018-10-02T15:47:30.738Z,98928.17
2018-10-02T15:49:59.197Z,98932.13
2018-10-02T15:52:27.349Z,98918.27
2018-10-02T15:54:55.558Z,98931.53
2018-10-02T15:57:24.822Z,98913.37
2018-10-02T15:59:53.092Z,98939.75
2018-10-02T16:02:22.201Z,98939.84
2018-10-02T16:04:51.609Z,98940.36
2018-10-02T16:07:20.167Z,98904.04
2018-10-02T16:09:48.737Z,98943.84
2018-10-02T16:12:16.858Z,98926.12
2018-10-02T16:14:44.950Z,98952.84
2018-10-02T16:17:13.213Z,98953.45
2018-10-02T16:19:43.040Z,98927.98
2018-10-02T16:22:11.404Z,98953.45
2018-10-02T16:24:46.724Z,98963.57
2018-10-02T16:27:15.243Z,98973.40
2018-10-02T16:29:44.743Z,98964.67
2018-10-02T16:32:13.761Z,98946.88
2018-10-02T16:34:49.288Z,98977.76
2018-10-02T16:37:28.002Z,98961.69
2018-10-02T16:40:02.448Z,98981.69
2018-10-02T16:42:31.104Z,98966.40
2018-10-02T16:45:11.961Z,98957.61
2018-10-02T16:47:40.832Z,98971.92
2018-10-02T16:50:10.228Z,98974.92
2018-10-02T16:52:38.783Z,99002.68
2018-10-02T16:55:08.379Z,98998.55
2018-10-02T16:57:38.589Z,99005.45
2018-10-02T17:00:14.373Z,98993.13
2018-10-02T17:02:48.667Z,99007.80
2018-10-02T17:05:21.321Z,98996.86
2018-10-02T17:07:58.821Z,98939.84
2018-10-02T17:10:34.563Z,99017.87
2018-10-02T17:13:04.247Z,98982.44
2018-10-02T17:15:33.257Z,98975.72
2018-10-02T17:18:03.203Z,98981.27
2018-10-02T17:20:31.812Z,99035.13
2018-10-02T17:23:02.315Z,99064.92
2018-10-02T17:25:32.610Z,99031.41
2018-10-02T17:28:01.089Z,99034.74
2018-10-02T17:30:29.686Z,99031.22
2018-10-02T17:33:02.773Z,99044.12
2018-10-02T17:35:32.963Z,99031.03
2018-10-02T17:38:07.655Z,99070.42
2018-10-02T17:40:44.090Z,99030.34
2018-10-02T17:43:17.917Z,99038.61
2018-10-02T17:45:46.613Z,99030.72
2018-10-02T17:48:16.768Z,99043.56
2018-10-02T17:50:50.885Z,98951.94
2018-10-02T17:53:21.231Z,99019.22
2018-10-02T17:55:51.143Z,99005.95
2018-10-02T17:58:21.379Z,99015.59
2018-10-02T18:01:01.893Z,98912.55
2018-10-02T18:03:31.348Z,99024.39
2018-10-02T18:06:08.709Z,99005.95
2018-10-02T18:08:41.249Z,99028.11
2018-10-02T18:11:12.179Z,99061.22
2018-10-02T18:13:40.590Z,99058.71
2018-10-02T18:16:23.878Z,98910.73
2018-10-02T18:18:58.121Z,98979.49
2018-10-02T18:21:30.175Z,99046.95
2018-10-02T18:24:03.244Z,99006.04
2018-10-02T18:26:31.737Z,99040.34
2018-10-02T18:29:00.540Z,99035.10
2018-10-02T18:31:29.190Z,99075.12
2018-10-02T18:33:57.377Z,99080.73
2018-10-02T18:36:30.682Z,99085.20
2018-10-02T18:38:58.826Z,99084.86
2018-10-02T18:41:28.905Z,99079.37
2018-10-02T18:43:57.359Z,99071.12
2018-10-02T18:46:26.560Z,99067.97
2018-10-02T18:48:55.969Z,99064.36
2018-10-02T18:51:30.270Z,99059.12
2018-10-02T18:53:59.024Z,99093.77
2018-10-02T18:56:27.444Z,99087.17
2018-10-02T18:58:55.726Z,99085.47
2018-10-02T19:01:24.593Z,99086.30
2018-10-02T19:03:55.214Z,99076.61
2018-10-02T19:06:25.007Z,99076.13
2018-10-02T19:09:00.095Z,99077.43
2018-10-02T19:11:36.715Z,99077.16
2018-10-02T19:14:05.977Z,99082.92
2018-10-02T19:16:36.871Z,99078.14
2018-10-02T19:21:16.926Z,99083.36
2018-10-02T19:23:45.493Z,99081.28
2018-10-02T19:26:19.256Z,99086.70
2018-10-02T19:28:49.255Z,99081.53
2018-10-02T19:32:25.698Z,99055.44
2018-10-02T19:34:57.307Z,99075.20
2018-10-02T19:37:34.604Z,99076.54
2018-10-02T19:40:06.296Z,99081.67
2018-10-02T19:42:36.473Z,99076.52
2018-10-02T19:45:12.428Z,99079.77
2018-10-02T19:47:41.033Z,99085.91
2018-10-02T19:50:14.744Z,99068.25
2018-10-02T19:52:46.115Z,99086.59
2018-10-02T19:55:17.857Z,99074.83
2018-10-02T19:57:48.663Z,99083.95
2018-10-02T20:00:19.747Z,99066.28
2018-10-02T20:02:49.857Z,99083.65
2018-10-02T20:05:20.831Z,99072.52
2018-10-02T20:07:50.097Z,99073.83
2018-10-02T20:10:29.187Z,99085.50
2018-10-02T20:15:37.564Z,99064.66
2018-10-02T20:18:07.793Z,99082.49
2018-10-02T20:20:39.936Z,99083.45
2018-10-02T20:23:10.469Z,99080.34
2018-10-02T20:25:41.994Z,99077.02
2018-10-02T20:28:16.438Z,99095.98
2018-10-02T20:30:47.253Z,99101.59
2018-10-02T20:33:19.003Z,99082.74
2018-10-02T20:35:53.213Z,99105.80
2018-10-02T20:38:23.354Z,99101.80
2018-10-02T20:41:01.079Z,99091.58
2018-10-02T20:43:45.539Z,99103.53
2018-10-02T20:46:18.474Z,99096.96
2018-10-02T20:48:50.039Z,99083.12
2018-10-02T20:51:21.284Z,99096.39
2018-10-02T20:54:03.426Z,99095.42
2018-10-02T20:56:34.512Z,99095.11
2018-10-02T20:59:05.791Z,99091.36
2018-10-02T21:01:36.012Z,99104.15
2018-10-02T21:04:09.818Z,99082.06
2018-10-02T21:06:38.373Z,99108.39
2018-10-02T21:09:10.297Z,99107.78
2018-10-02T21:11:42.310Z,99104.84
2018-10-02T21:14:12.193Z,99104.35
2018-10-02T21:16:43.505Z,99103.30
2018-10-02T21:19:13.877Z,99096.00
2018-10-02T21:21:43.309Z,99087.89
2018-10-02T21:24:13.685Z,99107.05
2018-10-02T21:26:44.644Z,99113.07
2018-10-02T21:29:13.164Z,99101.52
2018-10-02T21:31:42.525Z,99097.43
2018-10-02T21:34:12.457Z,99105.25
2018-10-02T21:36:41.842Z,99106.91
2018-10-02T21:39:11.265Z,99068.77
2018-10-02T21:41:40.806Z,99101.36
2018-10-02T21:44:11.458Z,99086.64
2018-10-02T21:46:40.231Z,99100.48
2018-10-02T21:49:09.683Z,99101.61
2018-10-02T21:51:40.760Z,99081.52
2018-10-02T21:54:12.392Z,99094.98
2018-10-02T21:56:43.707Z,99094.23
2018-10-02T21:59:12.828Z,99092.16
2018-10-02T22:01:45.804Z,99115.63
2018-10-02T22:04:17.000Z,99048.02
2018-10-02T22:06:48.736Z,99092.04
2018-10-02T22:09:21.257Z,99071.07
2018-10-02T22:11:50.336Z,99084.27
2018-10-02T22:14:24.575Z,98994.49
2018-10-02T22:16:53.370Z,99083.45
2018-10-02T22:19:23.208Z,99088.71
2018-10-02T22:21:56.050Z,99097.05
2018-10-02T22:24:26.035Z,99093.14
2018-10-02T22:26:55.957Z,99094.27
2018-10-02T22:29:27.863Z,99059.83
2018-10-02T22:31:59.193Z,99087.66
2018-10-02T22:34:27.662Z,99087.86
2018-10-02T22:36:56.805Z,99068.34
2018-10-02T22:39:25.010Z,99111.10
2018-10-02T22:41:53.688Z,99108.32
2018-10-02T22:44:22.478Z,99101.05
2018-10-02T22:46:52.752Z,99110.53
2018-10-02T22:49:21.345Z,99102.93
2018-10-02T22:51:51.898Z,99085.17
2018-10-02T22:54:21.376Z,99104.63
2018-10-02T22:56:49.598Z,99108.27
2018-10-02T22:59:17.865Z,99108.18
2018-10-02T23:01:46.211Z,99102.20
2018-10-02T23:04:17.800Z,99114.68
2018-10-02T23:06:46.929Z,99133.83
2018-10-02T23:09:15.997Z,99138.78
2018-10-02T23:11:45.248Z,99141.31
2018-10-02T23:14:13.993Z,99150.13
2018-10-02T23:16:45.042Z,99141.81
2018-10-02T23:19:13.999Z,99125.97
2018-10-02T23:21:43.634Z,99137.59
2018-10-02T23:24:13.322Z,99146.63
2018-10-02T23:26:41.923Z,99146.53
2018-10-02T23:29:11.842Z,99136.55
2018-10-02T23:31:41.372Z,99142.61
2018-10-02T23:34:09.911Z,99146.73
2018-10-02T23:36:39.712Z,99115.68
2018-10-02T23:39:09.115Z,99155.48
2018-10-02T23:41:39.850Z,99158.80
2018-10-02T23:44:12.430Z,99150.28
2018-10-02T23:46:40.905Z,99163.88
2018-10-02T23:49:11.233Z,99150.95
2018-10-02T23:51:40.870Z,99162.77
2018-10-02T23:54:10.449Z,99171.62
2018-10-02T23:56:39.958Z,99170.27
2018-10-02T23:59:08.594Z,99162.20
